Time;durP1;ratioP1;P1;durP2;ratioP2;P2;SDS_P1;SDS_P2;PMS_P1;PMS_P2;Temp;Humidity;BMP_temperature;BMP_pressure;BME280_temperature;BME280_humidity;BME280_pressure;Samples;Min_cycle;Max_cycle;Signal;HPM_P1;HPM_P2
2022/05/01 00:01:37;;;;;;;2.70;2.47;;;;;;;9.85;60.41;101669.56;5072774;28;20232;-77
2022/05/01 00:04:04;;;;;;;2.50;2.30;;;;;;;9.89;60.39;101659.19;5067530;28;20607;-78
2022/05/01 00:06:31;;;;;;;2.90;2.43;;;;;;;10.03;60.79;101664.44;5072111;28;20205;-77
2022/05/01 00:09:00;;;;;;;2.33;2.13;;;;;;;10.12;61.45;101630.53;5073695;28;20237;-79
2022/05/01 00:11:26;;;;;;;2.73;2.40;;;;;;;10.21;61.02;101624.47;5075374;28;20573;-79
2022/05/01 00:13:53;;;;;;;2.83;2.60;;;;;;;10.17;58.63;101674.91;5077367;28;20213;-79
2022/05/01 00:16:20;;;;;;;1.70;1.60;;;;;;;10.08;57.29;101716.63;5077587;28;20253;-77
2022/05/01 00:18:47;;;;;;;2.03;1.90;;;;;;;10.12;58.05;101742.72;5083098;28;20228;-78
2022/05/01 00:21:13;;;;;;;2.50;2.30;;;;;;;10.16;57.85;101735.78;5081117;28;20225;-79
2022/05/01 00:23:40;;;;;;;2.30;2.10;;;;;;;10.24;58.70;101730.59;5080844;28;20275;-78
2022/05/01 00:26:08;;;;;;;2.10;1.90;;;;;;;10.28;58.80;101712.34;5080710;28;20201;-77
2022/05/01 00:28:37;;;;;;;2.90;2.10;;;;;;;10.31;58.81;101698.47;5080911;28;20282;-78
2022/05/01 00:31:04;;;;;;;2.60;2.40;;;;;;;10.32;58.80;101711.50;5080712;28;20231;-79
2022/05/01 00:36:27;;;;;;;1.90;1.80;;;;;;;10.38;59.65;101702.81;5076433;28;20208;-77
2022/05/01 00:38:54;;;;;;;2.20;2.00;;;;;;;10.39;60.21;101678.47;5080215;28;20267;-78
2022/05/01 00:41:23;;;;;;;2.80;2.20;;;;;;;10.37;60.71;101663.69;5080299;28;20303;-79
2022/05/01 00:44:03;;;;;;;2.20;2.00;;;;;;;10.39;60.47;101656.72;5081159;28;20215;-78
2022/05/01 00:46:31;;;;;;;3.20;2.30;;;;;;;10.37;59.63;101661.09;5080859;28;20235;-78
2022/05/01 00:48:59;;;;;;;1.83;1.57;;;;;;;10.39;59.15;101706.31;5079789;28;20666;-79
2022/05/01 00:51:26;;;;;;;2.23;2.03;;;;;;;10.24;57.53;101734.06;5080848;28;20265;-79
2022/05/01 00:53:53;;;;;;;2.43;2.23;;;;;;;10.06;57.38;101754.88;5079329;28;20211;-78
2022/05/01 00:56:20;;;;;;;4.73;2.23;;;;;;;10.03;57.94;101754.84;5080168;28;20216;-79
2022/05/01 00:58:49;;;;;;;2.67;2.30;;;;;;;9.97;57.51;101757.44;5079746;28;20719;-79
2022/05/01 01:01:16;;;;;;;2.37;2.17;;;;;;;9.87;57.43;101746.97;5080161;28;20240;-78
2022/05/01 01:03:42;;;;;;;2.33;2.13;;;;;;;9.97;58.12;101741.78;5075600;28;20234;-78
2022/05/01 01:06:09;;;;;;;2.27;2.07;;;;;;;10.06;58.42;101721.84;5072992;28;20276;-78
2022/05/01 01:08:36;;;;;;;3.60;2.60;;;;;;;10.13;58.71;101713.16;5078526;28;20204;-76
2022/05/01 01:11:02;;;;;;;2.37;1.90;;;;;;;10.20;58.81;101703.63;5079910;28;20229;-77
2022/05/01 01:13:29;;;;;;;2.53;1.90;;;;;;;10.22;59.34;101681.00;5076994;28;20598;-78
2022/05/01 01:15:58;;;;;;;3.20;2.10;;;;;;;10.27;59.15;101684.50;5077715;28;20204;-78
2022/05/01 01:18:25;;;;;;;2.03;1.87;;;;;;;10.25;59.60;101693.22;5076833;28;20274;-78
2022/05/01 01:20:53;;;;;;;3.23;2.30;;;;;;;10.22;58.58;101703.63;5077212;28;20247;-78
2022/05/01 01:23:21;;;;;;;3.83;2.50;;;;;;;10.21;58.06;101714.91;5077439;28;20264;-78
2022/05/01 01:25:48;;;;;;;2.70;1.80;;;;;;;10.22;58.11;101729.72;5078376;28;20258;-77
2022/05/01 01:28:15;;;;;;;2.50;2.23;;;;;;;10.22;58.17;101734.94;5077137;28;20207;-78
2022/05/01 01:33:25;;;;;;;2.70;2.20;;;;;;;10.14;57.92;101709.69;5043803;28;20210;-78
2022/05/01 01:35:55;;;;;;;2.53;2.33;;;;;;;10.20;58.67;101721.88;5072495;28;20231;-78
2022/05/01 01:38:22;;;;;;;3.17;2.03;;;;;;;10.26;59.34;101690.56;5081600;28;20223;-78
2022/05/01 01:40:51;;;;;;;2.87;2.07;;;;;;;10.03;57.80;101739.19;5081550;28;20212;-79
2022/05/01 01:43:20;;;;;;;1.90;1.80;;;;;;;9.91;58.28;101738.31;5080969;28;20214;-77
2022/05/01 01:45:47;;;;;;;2.60;2.40;;;;;;;9.99;59.01;101707.03;5082607;28;20216;-78
2022/05/01 01:48:15;;;;;;;2.70;2.30;;;;;;;9.99;59.02;101716.56;5079786;28;20203;-78
2022/05/01 01:50:42;;;;;;;3.07;2.77;;;;;;;10.04;60.67;101675.75;5079143;28;20249;-79
2022/05/01 01:53:12;;;;;;;2.93;2.17;;;;;;;10.07;60.62;101647.94;5078762;28;20201;-78
2022/05/01 01:55:38;;;;;;;3.53;2.03;;;;;;;10.10;60.46;101662.72;5079013;28;20662;-79
2022/05/01 01:58:06;;;;;;;2.50;2.30;;;;;;;10.13;60.16;101666.22;5079560;28;20215;-78
2022/05/01 02:00:33;;;;;;;2.60;2.40;;;;;;;10.05;59.12;101696.63;5069934;28;20218;-78
2022/05/01 02:03:01;;;;;;;2.40;2.30;;;;;;;10.13;60.68;101684.47;5067564;28;20204;-78
2022/05/01 02:05:27;;;;;;;2.80;2.30;;;;;;;10.04;58.94;101691.41;5064844;28;20618;-77
2022/05/01 02:07:54;;;;;;;2.47;2.27;;;;;;;10.08;59.67;101699.22;5065646;28;20247;-78
2022/05/01 02:10:23;;;;;;;2.70;2.47;;;;;;;9.97;58.95;101715.69;5068800;28;20195;-78
2022/05/01 02:12:49;;;;;;;2.37;2.17;;;;;;;9.92;59.23;101711.34;5065821;28;20220;-77
2022/05/01 02:15:17;;;;;;;2.70;2.50;;;;;;;9.97;59.72;101689.63;5065905;28;20193;-78
2022/05/01 02:17:43;;;;;;;2.93;2.73;;;;;;;10.03;60.50;101663.56;5069303;28;20212;-78
2022/05/01 02:20:10;;;;;;;2.97;2.60;;;;;;;10.06;60.91;101653.13;5067109;28;20274;-77
2022/05/01 02:22:38;;;;;;;2.80;2.57;;;;;;;9.96;59.78;101656.59;5066752;28;20261;-79
2022/05/01 02:25:05;;;;;;;2.80;2.60;;;;;;;9.88;59.75;101683.50;5068494;28;20201;-79
2022/05/01 02:27:33;;;;;;;2.97;2.57;;;;;;;9.89;59.99;101677.44;5068242;28;20201;-78
2022/05/01 02:29:59;;;;;;;2.10;2.00;;;;;;;9.96;59.89;101662.66;5066841;28;20557;-79
2022/05/01 02:32:25;;;;;;;3.57;2.93;;;;;;;9.92;61.05;101653.09;5070602;28;20234;-79
2022/05/01 02:34:52;;;;;;;5.43;2.57;;;;;;;9.91;60.91;101640.91;5067171;28;20198;-78
2022/05/01 02:37:18;;;;;;;7.40;2.40;;;;;;;9.90;61.98;101613.97;5066236;28;20667;-78
2022/05/01 02:39:45;;;;;;;2.50;2.30;;;;;;;9.93;60.56;101610.50;5066977;28;20295;-78
2022/05/01 02:42:13;;;;;;;3.17;2.60;;;;;;;9.92;60.43;101638.31;5067623;28;20220;-78
2022/05/01 02:44:40;;;;;;;2.60;2.10;;;;;;;9.94;59.96;101641.78;5065663;28;20730;-79
2022/05/01 02:47:07;;;;;;;3.97;2.17;;;;;;;9.93;60.95;101640.06;5066383;28;20227;-78
2022/05/01 02:49:35;;;;;;;4.37;2.27;;;;;;;9.93;61.12;101628.78;5064928;28;20215;-78
2022/05/01 02:52:01;;;;;;;2.73;2.47;;;;;;;9.96;60.93;101620.94;5064455;28;20651;-77
2022/05/01 02:54:30;;;;;;;2.50;2.30;;;;;;;9.97;60.78;101630.53;5064421;28;20566;-78
2022/05/01 02:56:57;;;;;;;3.13;2.47;;;;;;;9.96;61.04;101627.91;5063328;28;20208;-78
2022/05/01 02:59:23;;;;;;;2.93;2.10;;;;;;;9.93;60.27;101640.06;5066236;28;20218;-78
2022/05/01 03:01:51;;;;;;;3.00;2.40;;;;;;;9.86;59.33;101650.47;5065253;28;20236;-78
2022/05/01 03:04:18;;;;;;;2.47;2.27;;;;;;;9.79;59.38;101656.50;5062256;28;20201;-78
2022/05/01 03:06:44;;;;;;;2.77;2.30;;;;;;;9.66;59.59;101663.44;5064632;28;20278;-78
2022/05/01 03:09:11;;;;;;;2.70;2.50;;;;;;;9.70;60.25;101657.38;5065644;28;20208;-77
2022/05/01 03:11:37;;;;;;;2.50;2.30;;;;;;;9.74;60.43;101648.69;5067500;28;20217;-78
2022/05/01 03:14:04;;;;;;;2.40;2.20;;;;;;;9.79;61.09;101636.56;5066287;28;20692;-79
2022/05/01 03:16:31;;;;;;;2.63;2.43;;;;;;;9.80;60.65;101629.59;5066352;28;20201;-79
2022/05/01 03:24:28;;;;;;;3.60;2.27;;;;;;;9.59;61.43;101620.81;5068682;28;21055;-78
2022/05/01 03:26:55;;;;;;;2.80;2.60;;;;;;;9.66;62.20;101608.69;5070812;28;20238;-77
2022/05/01 03:29:21;;;;;;;3.40;2.50;;;;;;;9.69;61.85;101586.09;5063808;28;20220;-78
2022/05/01 03:31:50;;;;;;;2.17;1.97;;;;;;;9.73;61.68;101584.34;5063539;28;20214;-78
2022/05/01 03:34:18;;;;;;;2.50;2.30;;;;;;;9.79;62.10;101579.19;5064903;28;20199;-77
2022/05/01 03:36:45;;;;;;;3.00;2.40;;;;;;;9.80;62.83;101562.66;5063707;28;20205;-78
2022/05/01 03:39:12;;;;;;;2.63;2.17;;;;;;;9.72;62.18;101572.19;5054720;28;20311;-77
2022/05/01 03:41:39;;;;;;;2.60;2.40;;;;;;;9.61;62.41;101573.88;5054183;28;20288;-78
2022/05/01 03:44:07;;;;;;;3.30;2.83;;;;;;;9.63;62.54;101566.94;5054621;28;20295;-77
2022/05/01 03:46:34;;;;;;;2.57;2.23;;;;;;;9.50;63.08;101560.84;5054113;28;20204;-78
2022/05/01 03:49:00;;;;;;;2.57;2.37;;;;;;;9.46;64.14;101535.63;5054423;28;20203;-78
2022/05/01 03:51:31;;;;;;;2.77;2.57;;;;;;;9.29;64.68;101502.53;5053980;28;20639;-78
2022/05/01 03:53:58;;;;;;;2.63;2.40;;;;;;;9.27;65.50;101487.78;5057658;28;20425;-78
2022/05/01 03:56:25;;;;;;;2.60;2.40;;;;;;;8.96;65.97;101477.25;5068267;28;20203;-77
2022/05/01 03:58:51;;;;;;;3.60;2.80;;;;;;;8.72;67.88;101447.63;5077630;28;20215;-78
2022/05/01 04:03:46;;;;;;;3.83;3.40;;;;;;;8.62;69.47;101352.16;5049075;28;20213;-83
2022/05/01 04:06:12;;;;;;;4.53;3.37;;;;;;;8.57;70.06;101321.78;5058851;28;20212;-84
2022/05/01 04:08:41;;;;;;;3.50;3.30;;;;;;;8.59;70.34;101299.22;5057986;28;20242;-80
2022/05/01 04:11:07;;;;;;;3.37;3.07;;;;;;;8.66;71.77;101285.34;5058469;28;20294;-84
2022/05/01 04:13:35;;;;;;;3.80;3.50;;;;;;;8.61;71.29;101285.34;5059319;28;20229;-83
2022/05/01 04:16:02;;;;;;;3.77;3.30;;;;;;;8.53;71.28;101274.91;5069551;28;20214;-84
2022/05/01 04:18:28;;;;;;;4.13;3.73;;;;;;;8.36;72.48;101255.75;5071567;28;20227;-85
2022/05/01 04:20:55;;;;;;;4.23;3.83;;;;;;;8.32;73.47;101233.19;5078548;28;20285;-84
2022/05/01 04:23:21;;;;;;;6.60;4.20;;;;;;;8.24;73.62;101219.28;5081164;28;20763;-85
2022/05/01 04:25:49;;;;;;;4.10;3.80;;;;;;;8.14;74.58;101187.19;5083658;28;20236;-84
2022/05/01 04:28:15;;;;;;;5.13;4.00;;;;;;;8.11;75.27;101161.19;5080378;28;20213;-85
2022/05/01 04:30:46;;;;;;;4.73;4.30;;;;;;;8.08;76.13;101140.38;5082058;28;20236;-83
2022/05/01 04:33:14;;;;;;;4.57;4.17;;;;;;;8.07;76.74;101131.72;5085095;28;20229;-84
2022/05/01 04:35:43;;;;;;;7.60;4.83;;;;;;;8.17;76.50;101104.00;5080252;28;20208;-86
2022/05/01 04:38:11;;;;;;;5.03;4.53;;;;;;;8.33;76.06;101117.88;5081484;28;20206;-85
2022/05/01 04:40:39;;;;;;;5.87;4.83;;;;;;;8.23;76.31;101119.59;5073951;28;20226;-85
2022/05/01 04:43:09;;;;;;;5.00;4.60;;;;;;;8.26;77.16;101108.31;5072674;28;20250;-84
2022/05/01 04:45:36;;;;;;;5.07;4.67;;;;;;;8.03;78.39;101090.97;5090733;28;20207;-84
2022/05/01 04:48:04;;;;;;;6.03;5.53;;;;;;;7.98;78.59;101063.22;5079923;28;20722;-84
2022/05/01 04:50:31;;;;;;;5.30;4.90;;;;;;;8.10;78.72;101064.09;5077973;28;20256;-84
2022/05/01 04:53:00;;;;;;;5.50;5.00;;;;;;;8.05;78.74;101062.38;5079217;28;20226;-84
2022/05/01 04:55:27;;;;;;;5.60;5.10;;;;;;;8.00;79.67;101048.50;5079234;28;20247;-83
2022/05/01 04:57:53;;;;;;;6.10;5.50;;;;;;;7.83;79.95;101038.03;5079103;28;20685;-84
2022/05/01 05:00:21;;;;;;;5.60;5.20;;;;;;;7.79;80.60;101010.31;5073388;28;20227;-84
2022/05/01 05:02:49;;;;;;;6.67;5.77;;;;;;;7.76;81.85;100983.47;5058832;28;20290;-84
2022/05/01 05:05:16;;;;;;;5.67;5.27;;;;;;;7.75;82.01;100973.94;5068963;28;20198;-83
2022/05/01 05:07:43;;;;;;;5.60;5.10;;;;;;;7.76;82.12;100964.41;5078710;28;20229;-85
2022/05/01 05:10:10;;;;;;;6.13;5.63;;;;;;;7.80;82.48;100963.56;5078494;28;20242;-82
2022/05/01 05:12:38;;;;;;;7.37;5.67;;;;;;;7.73;82.25;100964.41;5079173;28;20245;-83
2022/05/01 05:15:08;;;;;;;6.17;5.57;;;;;;;7.71;82.88;100964.44;5075823;28;20201;-81
2022/05/01 05:17:37;;;;;;;5.70;5.10;;;;;;;7.70;82.66;100965.28;5057340;28;20244;-83
2022/05/01 05:20:05;;;;;;;6.10;5.50;;;;;;;7.71;83.00;100966.13;5056588;28;20231;-83
2022/05/01 05:22:32;;;;;;;5.53;5.07;;;;;;;7.82;82.48;100968.75;5057358;28;20234;-82
2022/05/01 05:24:58;;;;;;;6.40;5.40;;;;;;;7.93;81.74;100973.09;5056644;28;20209;-83
2022/05/01 05:27:25;;;;;;;5.50;5.10;;;;;;;8.07;80.88;101003.44;5056567;28;20216;-82
2022/05/01 05:29:53;;;;;;;6.07;5.60;;;;;;;8.22;80.57;101016.44;5056052;28;20245;-83
2022/05/01 05:32:19;;;;;;;5.23;4.83;;;;;;;8.21;81.08;101026.84;5063838;28;20225;-83
2022/05/01 05:34:47;;;;;;;5.70;5.27;;;;;;;8.16;80.55;101019.88;5056186;28;20263;-82
2022/05/01 05:37:13;;;;;;;6.27;5.77;;;;;;;8.22;80.87;101025.97;5055864;28;20209;-81
2022/05/01 05:39:40;;;;;;;5.90;5.33;;;;;;;8.42;80.29;101026.00;5055410;28;20259;-82
2022/05/01 05:42:07;;;;;;;5.17;4.67;;;;;;;8.51;80.14;101042.47;5056450;28;20226;-83
2022/05/01 05:44:33;;;;;;;6.33;4.70;;;;;;;8.60;78.68;101059.78;5056698;28;20210;-81
2022/05/01 05:46:59;;;;;;;6.63;5.87;;;;;;;8.43;78.73;101090.19;5055765;28;20685;-82
2022/05/01 05:49:26;;;;;;;6.00;5.00;;;;;;;8.57;79.18;101080.63;5055309;28;20232;-79
2022/05/01 05:51:54;;;;;;;6.30;4.73;;;;;;;8.73;79.17;101084.09;5055566;28;20717;-82
2022/05/01 05:54:20;;;;;;;5.67;5.17;;;;;;;8.77;78.16;101105.78;5055687;28;20220;-83
2022/05/01 05:56:46;;;;;;;12.47;6.07;;;;;;;8.93;77.81;101115.31;5056419;28;20254;-83
2022/05/01 05:59:15;;;;;;;7.13;4.70;;;;;;;8.81;77.89;101130.94;5055263;28;20207;-84
2022/05/01 06:01:41;;;;;;;5.23;4.83;;;;;;;8.84;77.66;101123.13;5063529;28;20243;-84
2022/05/01 06:04:08;;;;;;;6.80;5.03;;;;;;;8.82;77.76;101122.25;5063356;28;20217;-83
2022/05/01 06:06:34;;;;;;;5.00;4.53;;;;;;;8.89;77.58;101129.19;5074299;28;20204;-83
2022/05/01 06:09:02;;;;;;;5.55;5.03;;;;;;;8.98;77.41;101126.59;5074392;28;20426;-83
2022/05/01 06:11:29;;;;;;;7.00;4.80;;;;;;;8.92;77.48;101130.06;5076008;28;20719;-84
2022/05/01 06:13:55;;;;;;;5.67;5.17;;;;;;;8.89;78.17;101118.78;5075883;28;20234;-83
2022/05/01 06:16:22;;;;;;;7.40;5.23;;;;;;;8.79;79.02;101102.31;5075249;28;20220;-82
2022/05/01 06:18:48;;;;;;;5.40;5.00;;;;;;;8.89;79.28;101077.13;5074431;28;20615;-83
2022/05/01 06:21:14;;;;;;;5.77;5.13;;;;;;;8.79;78.51;101097.09;5076851;28;20258;-83
2022/05/01 06:23:41;;;;;;;6.00;5.03;;;;;;;8.83;78.14;101110.97;5076286;28;20236;-83
2022/05/01 06:26:10;;;;;;;5.47;4.97;;;;;;;8.80;79.00;101098.84;5075490;28;20262;-82
2022/05/01 06:28:36;;;;;;;5.27;4.77;;;;;;;8.69;79.53;101091.03;5075520;28;20211;-81
2022/05/01 06:31:04;;;;;;;6.23;5.10;;;;;;;8.54;79.79;101093.63;5076615;28;20667;-83
2022/05/01 06:33:34;;;;;;;5.90;5.40;;;;;;;8.33;81.46;101058.91;5071196;28;20234;-83
2022/05/01 06:36:01;;;;;;;6.23;5.73;;;;;;;8.44;81.36;101038.13;5068966;28;20247;-84
2022/05/01 06:38:29;;;;;;;6.67;5.60;;;;;;;8.33;81.90;101019.91;5075299;28;20200;-82
2022/05/01 06:40:55;;;;;;;5.13;4.73;;;;;;;8.52;81.85;101002.59;5074834;28;20227;-83
2022/05/01 06:43:23;;;;;;;6.43;5.57;;;;;;;8.74;81.96;101011.22;5075485;28;20229;-83
2022/05/01 06:45:49;;;;;;;6.10;5.60;;;;;;;8.90;81.16;101029.38;5075048;28;20617;-83
2022/05/01 06:48:15;;;;;;;6.07;5.50;;;;;;;9.04;80.66;101044.97;5075929;28;20248;-84
2022/05/01 06:50:42;;;;;;;5.63;5.07;;;;;;;9.19;80.54;101052.75;5074718;28;20619;-84
2022/05/01 06:53:09;;;;;;;6.17;5.57;;;;;;;9.33;79.87;101066.56;5076204;28;20235;-83
2022/05/01 06:55:35;;;;;;;6.00;5.40;;;;;;;9.20;79.25;101097.91;5074772;28;20566;-85
2022/05/01 06:58:02;;;;;;;5.27;4.77;;;;;;;9.14;78.97;101091.84;5074781;28;20211;-84
2022/05/01 07:00:30;;;;;;;5.17;4.70;;;;;;;9.32;79.40;101085.69;5074203;28;20254;-82
2022/05/01 07:02:56;;;;;;;5.50;5.00;;;;;;;9.48;77.89;101109.97;5071029;28;20286;-83
2022/05/01 07:05:23;;;;;;;6.70;5.77;;;;;;;9.63;77.91;101134.22;5066987;28;20248;-84
2022/05/01 07:07:50;;;;;;;6.30;5.70;;;;;;;9.74;76.78;101158.53;5075035;28;20574;-82
2022/05/01 07:10:17;;;;;;;5.63;5.10;;;;;;;9.73;76.33;101180.25;5074063;28;20213;-84
2022/05/01 07:12:44;;;;;;;5.77;5.20;;;;;;;9.68;76.67;101188.09;5076060;28;20226;-84
2022/05/01 07:15:11;;;;;;;6.63;5.30;;;;;;;9.72;76.90;101181.97;5076052;28;20735;-81
2022/05/01 07:17:39;;;;;;;6.83;4.97;;;;;;;9.86;76.38;101181.06;5074914;28;20268;-82
2022/05/01 07:20:07;;;;;;;5.53;5.03;;;;;;;10.00;74.97;101227.97;5073485;28;20279;-83
2022/05/01 07:22:34;;;;;;;5.67;5.17;;;;;;;10.11;74.36;101244.44;5074427;28;20227;-80
2022/05/01 07:25:00;;;;;;;5.50;4.93;;;;;;;10.19;73.80;101263.53;5074062;28;20204;-82
2022/05/01 07:27:26;;;;;;;5.30;4.83;;;;;;;10.26;73.03;101288.72;5073455;28;20246;-83
2022/05/01 07:29:53;;;;;;;5.17;4.67;;;;;;;10.25;73.80;101268.72;5073459;28;20550;-80
2022/05/01 07:32:19;;;;;;;5.93;5.43;;;;;;;10.27;73.57;101273.97;5074161;28;20230;-82
2022/05/01 07:34:47;;;;;;;6.23;5.50;;;;;;;10.31;74.14;101258.28;5070776;28;20205;-81
2022/05/01 07:37:14;;;;;;;6.60;6.00;;;;;;;10.23;74.08;101260.03;5054040;28;20211;-82
2022/05/01 07:39:41;;;;;;;6.77;5.50;;;;;;;10.25;74.60;101244.41;5053989;28;20211;-84
2022/05/01 07:42:08;;;;;;;6.47;5.70;;;;;;;10.30;74.36;101242.66;5053814;28;20235;-82
2022/05/01 07:44:34;;;;;;;5.50;5.10;;;;;;;10.17;73.98;101260.06;5053722;28;20683;-82
2022/05/01 07:47:01;;;;;;;6.40;5.90;;;;;;;10.03;74.52;101241.88;5054189;28;20208;-84
2022/05/01 07:49:30;;;;;;;6.30;5.80;;;;;;;10.16;74.64;101236.59;5053470;28;20208;-83
2022/05/01 07:52:00;;;;;;;6.77;6.13;;;;;;;10.26;74.82;101238.28;5054432;28;20256;-82
2022/05/01 07:54:26;;;;;;;6.70;6.10;;;;;;;10.23;74.76;101230.50;5054103;28;20260;-82
2022/05/01 07:56:52;;;;;;;6.30;5.80;;;;;;;10.34;74.17;101246.97;5053873;28;20212;-81
2022/05/01 07:59:19;;;;;;;6.07;5.57;;;;;;;10.37;73.38;101269.59;5053516;28;20262;-82
2022/05/01 08:01:45;;;;;;;6.30;5.80;;;;;;;10.19;74.00;101266.16;5053444;28;20639;-82
2022/05/01 08:04:29;;;;;;;6.80;6.10;;;;;;;10.29;74.06;101249.56;5061831;28;20268;-81
2022/05/01 08:06:58;;;;;;;5.97;5.47;;;;;;;10.40;73.40;101275.66;5054022;28;20683;-81
2022/05/01 08:09:25;;;;;;;5.90;5.47;;;;;;;10.41;72.96;101285.22;5053478;28;20212;-82
2022/05/01 08:11:57;;;;;;;9.10;6.90;;;;;;;10.47;72.64;101297.38;5053914;28;20221;-83
2022/05/01 08:14:26;;;;;;;6.30;5.80;;;;;;;10.45;73.30;101286.09;5053453;28;20255;-82
2022/05/01 08:16:53;;;;;;;6.33;5.73;;;;;;;10.53;73.31;101277.31;5053687;28;20267;-82
2022/05/01 08:22:15;;;;;;;6.20;5.20;;;;;;;10.72;72.35;101311.16;5054022;28;20319;-84
2022/05/01 08:24:41;;;;;;;6.83;6.23;;;;;;;10.88;72.30;101309.31;5054396;28;20216;-82
2022/05/01 08:27:07;;;;;;;6.23;5.60;;;;;;;10.99;71.37;101338.00;5053844;28;20262;-82
2022/05/01 08:29:38;;;;;;;7.20;6.67;;;;;;;11.09;70.91;101364.06;5053899;28;20216;-83
2022/05/01 08:32:06;;;;;;;6.03;5.47;;;;;;;11.20;70.44;101371.84;5054097;28;20234;-83
2022/05/01 08:34:39;;;;;;;6.77;6.17;;;;;;;11.10;70.10;101397.16;5061378;28;20269;-82
2022/05/01 08:37:11;;;;;;;7.33;6.63;;;;;;;11.04;70.60;101388.47;5053731;28;20696;-83
2022/05/01 08:39:40;;;;;;;7.63;6.97;;;;;;;10.96;70.52;101380.69;5056350;28;20212;-83
2022/05/01 08:42:09;;;;;;;6.73;6.20;;;;;;;11.06;70.49;101377.16;5058039;28;20232;-80
2022/05/01 08:44:40;;;;;;;8.47;6.33;;;;;;;11.30;70.23;101386.59;5057035;28;20682;-82
2022/05/01 08:47:20;;;;;;;5.57;5.10;;;;;;;11.50;69.12;101407.34;5060050;28;20236;-83
2022/05/01 08:49:49;;;;;;;7.30;6.60;;;;;;;11.72;67.70;101446.44;5057029;28;20285;-84
2022/05/01 08:52:20;;;;;;;5.53;5.03;;;;;;;11.89;66.12;101485.56;5058053;28;20224;-81
2022/05/01 08:54:48;;;;;;;5.33;4.93;;;;;;;12.01;65.29;101536.94;5057783;28;20214;-84
2022/05/01 08:57:19;;;;;;;5.30;4.90;;;;;;;12.10;64.52;101573.50;5057353;28;20255;-84
2022/05/01 08:59:46;;;;;;;6.00;5.50;;;;;;;12.17;63.86;101587.41;5056290;28;20242;-80
2022/05/01 09:02:14;;;;;;;6.47;5.77;;;;;;;12.16;63.55;101599.66;5058013;28;20236;-84
2022/05/01 09:04:41;;;;;;;5.00;4.50;;;;;;;12.23;62.93;101609.22;5076798;28;20212;-83
2022/05/01 09:07:08;;;;;;;6.03;4.43;;;;;;;12.27;62.17;101629.25;5076950;28;20565;-83
2022/05/01 09:09:35;;;;;;;5.07;4.50;;;;;;;12.35;62.99;101639.66;5076190;28;20254;-83
2022/05/01 09:14:49;;;;;;;5.33;4.93;;;;;;;12.48;61.71;101658.78;5077114;28;20616;-86
2022/05/01 09:17:19;;;;;;;5.70;5.07;;;;;;;12.52;62.03;101660.47;5076776;28;20227;-85
2022/05/01 09:19:48;;;;;;;5.60;5.10;;;;;;;12.60;61.95;101660.44;5076517;28;20205;-85
2022/05/01 09:22:15;;;;;;;5.50;5.00;;;;;;;12.68;62.30;101643.75;5076312;28;20232;-84
2022/05/01 09:24:43;;;;;;;6.00;4.53;;;;;;;12.85;63.69;101612.19;5076540;28;20254;-83
2022/05/01 09:27:31;;;;;;;5.37;4.93;;;;;;;13.01;62.58;101610.28;5077056;28;20210;-84
2022/05/01 09:30:13;;;;;;;5.97;5.30;;;;;;;13.22;60.75;101651.16;5076206;28;20251;-86
2022/05/01 09:32:41;;;;;;;4.87;4.40;;;;;;;13.30;59.91;101691.28;5077242;28;20221;-86
2022/05/01 09:35:12;;;;;;;5.90;4.70;;;;;;;13.37;59.40;101728.81;5068461;28;20208;-87
2022/05/01 09:37:39;;;;;;;5.50;4.83;;;;;;;13.28;59.62;101744.63;5077616;28;20712;-85
2022/05/01 09:40:08;;;;;;;5.03;4.53;;;;;;;13.29;59.47;101739.38;5077276;28;20205;-84
2022/05/01 09:42:36;;;;;;;4.47;4.00;;;;;;;13.33;58.98;101752.47;5077401;28;20224;-85
2022/05/01 09:45:07;;;;;;;5.40;4.90;;;;;;;13.42;59.16;101748.00;5076791;28;20200;-86
2022/05/01 09:47:41;;;;;;;5.63;4.80;;;;;;;13.46;57.08;101788.19;5076639;28;20219;-84
2022/05/01 09:50:09;;;;;;;5.03;4.63;;;;;;;13.19;55.84;101839.94;5076350;28;20211;-83
2022/05/01 09:52:56;;;;;;;4.53;4.13;;;;;;;13.31;56.88;101837.25;5076227;28;20225;-84
2022/05/01 09:55:24;;;;;;;4.50;4.10;;;;;;;13.41;56.31;101834.56;5076423;28;20208;-83
2022/05/01 09:58:03;;;;;;;5.73;5.17;;;;;;;13.50;58.40;101803.88;5076251;28;20201;-84
2022/05/01 10:00:44;;;;;;;5.00;4.50;;;;;;;13.65;58.15;101774.00;5075752;28;20236;-82
2022/05/01 10:03:21;;;;;;;5.27;4.00;;;;;;;13.82;55.27;101836.81;5076610;22;20366;-80
2022/05/01 10:05:49;;;;;;;4.47;3.93;;;;;;;13.89;54.37;101891.00;5026281;28;20209;-80
2022/05/01 10:08:21;;;;;;;3.97;3.67;;;;;;;13.89;53.37;101922.50;5034639;28;20253;-78
2022/05/01 10:10:51;;;;;;;5.60;4.07;;;;;;;13.84;54.20;101926.91;5032459;28;20205;-78
2022/05/01 10:13:18;;;;;;;4.13;3.70;;;;;;;13.75;54.17;101918.25;5034055;28;20219;-79
2022/05/01 10:15:46;;;;;;;3.47;3.17;;;;;;;13.63;54.26;101919.22;5033565;28;20206;-79
2022/05/01 10:18:14;;;;;;;3.57;3.27;;;;;;;13.56;54.00;101917.50;5038521;28;20593;-77
2022/05/01 10:20:42;;;;;;;3.60;3.30;;;;;;;13.55;54.38;101905.28;5044588;28;20212;-81
2022/05/01 10:23:10;;;;;;;4.13;3.50;;;;;;;13.53;54.29;101901.81;5048853;28;20258;-80
2022/05/01 10:25:40;;;;;;;4.10;3.80;;;;;;;13.49;53.94;101899.19;5053756;28;20209;-78
2022/05/01 10:28:21;;;;;;;4.10;3.70;;;;;;;13.45;53.04;101935.97;5041050;28;20202;-79
2022/05/01 10:33:57;;;;;;;3.90;3.60;;;;;;;13.46;54.28;101895.75;5035120;28;20232;-81
2022/05/01 10:36:38;;;;;;;5.70;3.87;;;;;;;13.42;53.36;101918.50;5036611;28;20252;-78
2022/05/01 10:39:13;;;;;;;4.20;3.90;;;;;;;13.47;53.75;101914.06;5034269;28;20202;-78
2022/05/01 10:41:42;;;;;;;3.57;3.37;;;;;;;13.55;52.84;101919.25;5035646;28;20273;-78
2022/05/01 10:44:26;;;;;;;4.67;4.27;;;;;;;13.67;53.44;101910.44;5035740;28;20580;-81
2022/05/01 10:46:55;;;;;;;5.63;4.10;;;;;;;13.76;53.98;101899.88;5034789;28;20205;-81
2022/05/01 10:49:36;;;;;;;5.13;3.97;;;;;;;13.86;53.73;101887.53;5035616;28;20739;-81
2022/05/01 10:52:17;;;;;;;4.07;3.57;;;;;;;13.90;52.00;101928.63;5036394;28;20212;-79
2022/05/01 10:54:59;;;;;;;3.60;3.30;;;;;;;13.89;52.56;101946.13;5035748;28;20263;-79
2022/05/01 10:57:25;;;;;;;3.93;3.63;;;;;;;14.01;52.80;101925.88;5035606;28;20624;-81
2022/05/01 11:00:05;;;;;;;3.33;3.13;;;;;;;14.13;51.11;101949.41;5033976;28;20625;-80
2022/05/01 11:02:35;;;;;;;3.37;3.07;;;;;;;14.19;50.37;102004.53;5034515;28;20226;-79
2022/05/01 11:05:03;;;;;;;3.77;3.07;;;;;;;14.28;50.30;102006.19;5036305;28;20740;-79
2022/05/01 11:07:30;;;;;;;3.43;2.97;;;;;;;14.41;48.80;102025.31;5035837;28;20206;-79
2022/05/01 11:10:00;;;;;;;3.23;3.03;;;;;;;14.29;46.31;102123.47;5034508;28;20739;-81
2022/05/01 11:12:27;;;;;;;4.30;2.93;;;;;;;14.44;47.03;102140.91;5026067;28;20223;-79
2022/05/01 11:14:57;;;;;;;3.30;3.03;;;;;;;14.76;45.51;102171.34;5024181;28;20204;-79
2022/05/01 11:17:46;;;;;;;3.20;2.87;;;;;;;15.02;46.06;102185.09;5023886;28;20207;-79
2022/05/01 11:20:34;;;;;;;3.77;2.70;;;;;;;15.28;44.39;102189.25;5023569;28;20218;-78
2022/05/01 11:23:33;;;;;;;3.00;2.80;;;;;;;15.52;44.96;102226.72;5028316;28;20247;-80
2022/05/01 11:26:17;;;;;;;3.07;2.70;;;;;;;15.84;44.12;102229.91;5016089;28;20223;-79
2022/05/01 11:28:54;;;;;;;3.00;2.80;;;;;;;15.87;42.73;102274.63;5033342;28;20218;-79
2022/05/01 11:31:47;;;;;;;2.40;2.20;;;;;;;15.87;42.78;102273.75;5036034;28;20215;-79
2022/05/01 11:34:51;;;;;;;3.23;3.00;;;;;;;15.72;42.52;102303.75;5035922;28;20241;-78
2022/05/01 11:37:18;;;;;;;3.00;2.70;;;;;;;15.72;43.29;102302.84;5035950;28;20212;-78
2022/05/01 11:40:23;;;;;;;2.77;2.57;;;;;;;15.84;43.12;102282.56;5035702;28;20212;-79
2022/05/01 11:42:50;;;;;;;2.50;2.30;;;;;;;15.91;43.09;102278.09;5036369;28;20227;-78
2022/05/01 11:45:18;;;;;;;3.50;2.70;;;;;;;16.05;42.73;102270.91;5034118;28;20253;-78
2022/05/01 11:47:49;;;;;;;3.10;2.90;;;;;;;16.25;41.44;102280.31;5035719;28;20315;-79
2022/05/01 11:50:24;;;;;;;2.83;2.63;;;;;;;16.21;41.25;102320.75;5035214;28;20560;-79
2022/05/01 11:52:53;;;;;;;3.60;3.30;;;;;;;16.22;41.43;102340.97;5034689;28;20243;-80
2022/05/01 11:55:20;;;;;;;3.80;3.33;;;;;;;16.46;41.54;102309.03;5035037;28;20236;-80
2022/05/01 12:03:30;;;;;;;4.50;3.57;;;;;;;20.26;35.93;102479.56;5034635;28;20232;-80
2022/05/01 12:05:56;;;;;;;3.50;2.77;;;;;;;21.20;34.22;102560.13;5037241;28;20250;-80